This is the latest recevied telemetry packets stored in our database for station/object HS4IOO. If no packets are shown the sender has not sent any telemetry packets the latest 1 day(s).
Telemetry packets is used to share measurements like repeteater parameters, battery voltage, radiation readings (or any other measurements).
| Time | TEMP* | HUM* | BAR* | BAT* | Value5* |
|---|---|---|---|---|---|
| 1777921756 | 32.13 °C | 51.3 %RH | 1002.9 hPa | 4.18 V | 0 |
| 1777921156 | 31.95 °C | 52.4 %RH | 1003.4 hPa | 4.18 V | 0 |
| 1777920556 | 31.52 °C | 53.3 %RH | 1003.3 hPa | 4.12 V | 0 |
| 1777919956 | 31.94 °C | 52.1 %RH | 1003.3 hPa | 4.18 V | 0 |
| 1777919356 | 31.95 °C | 52.1 %RH | 1003.6 hPa | 4.18 V | 0 |
| 1777918756 | 31.86 °C | 52.9 %RH | 1003.6 hPa | 4.17 V | 0 |
| 1777918156 | 31.97 °C | 52.9 %RH | 1004.1 hPa | 4.18 V | 0 |
| 1777917556 | 31.78 °C | 53.4 %RH | 1004.5 hPa | 4.18 V | 0 |
| 1777916956 | 31.4 °C | 54.2 %RH | 1004.7 hPa | 4.13 V | 0 |
| 1777916356 | 31.57 °C | 54.4 %RH | 1005 hPa | 4.18 V | 0 |
| 1777915756 | 30.84 °C | 56.9 %RH | 1005 hPa | 4.18 V | 0 |
| 1777915156 | 30.65 °C | 57.1 %RH | 1005.1 hPa | 4.18 V | 0 |
| 1777914556 | 30.95 °C | 57.4 %RH | 1005.5 hPa | 4.18 V | 0 |
| 1777913956 | 31.51 °C | 58.1 %RH | 1005.1 hPa | 4.12 V | 0 |
| 1777913356 | 30.79 °C | 61.4 %RH | 1005.2 hPa | 4.19 V | 0 |
| 1777912756 | 32.86 °C | 55.4 %RH | 1004.5 hPa | 4.19 V | 0 |
| 1777912156 | 34.34 °C | 51.6 %RH | 1004 hPa | 4.18 V | 0 |
| 1777911556 | 34.5 °C | 51 %RH | 1003.7 hPa | 4.18 V | 0 |
| 1777910956 | 34.22 °C | 51.7 %RH | 1003.6 hPa | 4.19 V | 0 |
| 1777910355 | 33.79 °C | 52.7 %RH | 1003.7 hPa | 4.18 V | 0 |
| 1777909756 | 34.4 °C | 51.1 %RH | 1004 hPa | 4.13 V | 0 |
| 1777909156 | 33.86 °C | 52.6 %RH | 1004.2 hPa | 4.18 V | 0 |
| 1777908556 | 33.11 °C | 54.4 %RH | 1004.4 hPa | 4.19 V | 0 |
| 1777907956 | 33.06 °C | 54 %RH | 1004.3 hPa | 4.19 V | 0 |
| 1777907355 | 33.59 °C | 52.1 %RH | 1004.2 hPa | 4.18 V | 0 |
*Used Equation Coefficients:
TEMP: 0, 0.01, 0
HUM: 0, 0.1, 0
BAR: 0, 0.1, 800
BAT: 0, 0.01, 0
Value5: 0, 1, 0
- The parameter names for the analog channels will be Value1, Value2, Value3 (up to Value5) if station has not sent a PARAM-packet that specifies the parameter names for each analog channel.
- Each analog value is a decimal number between 000 and 255 (according to APRS specifications). The receiver use the telemetry equation coefficientsto to restore the original sensor values. If no EQNS-packet with equation coefficients is sent we will show the values as is (this corresponds to the equation coefficients a=0, b=1 and c=0).
The sent equation coefficients is used in the equation: a * value2 + b * value + c. - The units for the analog values will not be shown if station has not sent a UNIT-packet specifying what unit's to use.
- The parameter names for the digital bits will be Bit1, Bit2, Bit3 (up to Bit8) if station has not sent a PARAM-packet that specifies the parameter names for each digital bit.
- All bit labels will be named "On" if station has not sent a UNIT-packet that specifies the label of each bit.
- A bit is considered to be On when the bit is 1 if station has not sent a BITS-packet that specifies another "Bit sense" (a BITS-packet specify the state of the bits that match the BIT labels)